sensor_id;sensor_type;location;lat;lon;timestamp;temperature;humidity
49615;DHT22;35517;45.272;9.984;2024-03-02T00:00:29;12.00;99.90
49615;DHT22;35517;45.272;9.984;2024-03-02T00:02:56;11.90;99.90
49615;DHT22;35517;45.272;9.984;2024-03-02T00:05:22;12.00;99.90
49615;DHT22;35517;45.272;9.984;2024-03-02T00:07:57;11.90;99.90
49615;DHT22;35517;45.272;9.984;2024-03-02T00:10:30;11.80;99.90
49615;DHT22;35517;45.272;9.984;2024-03-02T00:13:03;12.00;99.90
49615;DHT22;35517;45.272;9.984;2024-03-02T00:15:56;11.90;99.90
49615;DHT22;35517;45.272;9.984;2024-03-02T00:18:30;11.90;99.90
49615;DHT22;35517;45.272;9.984;2024-03-02T00:20:57;12.00;99.90
49615;DHT22;35517;45.272;9.984;2024-03-02T00:23:26;11.90;99.90
49615;DHT22;35517;45.272;9.984;2024-03-02T00:25:57;12.00;99.90
49615;DHT22;35517;45.272;9.984;2024-03-02T00:28:25;11.90;99.90
49615;DHT22;35517;45.272;9.984;2024-03-02T00:31:06;11.90;99.90
49615;DHT22;35517;45.272;9.984;2024-03-02T00:33:39;12.00;99.90
49615;DHT22;35517;45.272;9.984;2024-03-02T00:36:07;12.00;99.90
49615;DHT22;35517;45.272;9.984;2024-03-02T00:38:34;11.90;99.90
49615;DHT22;35517;45.272;9.984;2024-03-02T00:41:06;11.90;99.90
49615;DHT22;35517;45.272;9.984;2024-03-02T00:43:42;11.90;99.90
49615;DHT22;35517;45.272;9.984;2024-03-02T00:46:20;11.90;99.90
49615;DHT22;35517;45.272;9.984;2024-03-02T00:48:57;11.90;99.90
49615;DHT22;35517;45.272;9.984;2024-03-02T00:51:26;11.90;99.90
49615;DHT22;35517;45.272;9.984;2024-03-02T00:53:54;11.90;99.90
49615;DHT22;35517;45.272;9.984;2024-03-02T00:56:23;11.80;99.90
49615;DHT22;35517;45.272;9.984;2024-03-02T00:58:50;11.80;99.90
49615;DHT22;35517;45.272;9.984;2024-03-02T01:01:17;11.80;99.90
49615;DHT22;35517;45.272;9.984;2024-03-02T01:03:43;11.90;99.90
49615;DHT22;35517;45.272;9.984;2024-03-02T01:06:09;11.90;99.90
49615;DHT22;35517;45.272;9.984;2024-03-02T01:08:36;11.90;99.90
49615;DHT22;35517;45.272;9.984;2024-03-02T01:11:03;11.90;99.90
49615;DHT22;35517;45.272;9.984;2024-03-02T01:13:29;11.80;99.90
49615;DHT22;35517;45.272;9.984;2024-03-02T01:15:56;11.90;99.90
49615;DHT22;35517;45.272;9.984;2024-03-02T01:18:22;11.90;99.90
49615;DHT22;35517;45.272;9.984;2024-03-02T01:20:50;11.90;99.90
49615;DHT22;35517;45.272;9.984;2024-03-02T01:23:22;11.90;99.90
49615;DHT22;35517;45.272;9.984;2024-03-02T01:25:48;11.80;99.90
49615;DHT22;35517;45.272;9.984;2024-03-02T01:28:15;11.90;99.90
49615;DHT22;35517;45.272;9.984;2024-03-02T01:30:41;11.90;99.90
49615;DHT22;35517;45.272;9.984;2024-03-02T01:33:08;11.90;99.90
49615;DHT22;35517;45.272;9.984;2024-03-02T01:35:34;11.80;99.90
49615;DHT22;35517;45.272;9.984;2024-03-02T01:38:01;11.90;99.90
49615;DHT22;35517;45.272;9.984;2024-03-02T01:40:27;11.80;99.90
49615;DHT22;35517;45.272;9.984;2024-03-02T01:42:55;11.90;99.90
49615;DHT22;35517;45.272;9.984;2024-03-02T01:45:21;11.90;99.90
49615;DHT22;35517;45.272;9.984;2024-03-02T01:47:47;11.90;99.90
49615;DHT22;35517;45.272;9.984;2024-03-02T01:50:14;11.80;99.90
49615;DHT22;35517;45.272;9.984;2024-03-02T01:52:41;11.80;99.90
49615;DHT22;35517;45.272;9.984;2024-03-02T01:55:07;11.90;99.90
49615;DHT22;35517;45.272;9.984;2024-03-02T01:57:38;11.90;99.90
49615;DHT22;35517;45.272;9.984;2024-03-02T02:00:05;11.90;99.90
49615;DHT22;35517;45.272;9.984;2024-03-02T02:02:37;11.90;99.90
49615;DHT22;35517;45.272;9.984;2024-03-02T02:05:04;11.80;99.90
49615;DHT22;35517;45.272;9.984;2024-03-02T02:07:30;11.90;99.90
49615;DHT22;35517;45.272;9.984;2024-03-02T02:09:57;11.90;99.90
49615;DHT22;35517;45.272;9.984;2024-03-02T02:12:24;11.90;99.90
49615;DHT22;35517;45.272;9.984;2024-03-02T02:14:50;11.80;99.90
49615;DHT22;35517;45.272;9.984;2024-03-02T02:17:17;11.80;99.90
49615;DHT22;35517;45.272;9.984;2024-03-02T02:19:43;11.80;99.90
49615;DHT22;35517;45.272;9.984;2024-03-02T02:22:10;11.80;99.90
49615;DHT22;35517;45.272;9.984;2024-03-02T02:24:42;11.80;99.90
49615;DHT22;35517;45.272;9.984;2024-03-02T02:27:09;11.90;99.90
49615;DHT22;35517;45.272;9.984;2024-03-02T02:29:36;11.80;99.90
49615;DHT22;35517;45.272;9.984;2024-03-02T02:32:02;11.80;99.90
49615;DHT22;35517;45.272;9.984;2024-03-02T02:34:29;11.80;99.90
49615;DHT22;35517;45.272;9.984;2024-03-02T02:36:55;11.80;99.90
49615;DHT22;35517;45.272;9.984;2024-03-02T02:39:22;11.80;99.90
49615;DHT22;35517;45.272;9.984;2024-03-02T02:41:48;11.80;99.90
49615;DHT22;35517;45.272;9.984;2024-03-02T02:44:14;11.80;99.90
49615;DHT22;35517;45.272;9.984;2024-03-02T02:46:41;11.80;99.90
49615;DHT22;35517;45.272;9.984;2024-03-02T02:49:07;11.90;99.90
49615;DHT22;35517;45.272;9.984;2024-03-02T02:51:33;11.80;99.90
49615;DHT22;35517;45.272;9.984;2024-03-02T02:54:00;11.80;99.90
49615;DHT22;35517;45.272;9.984;2024-03-02T02:56:26;11.80;99.90
49615;DHT22;35517;45.272;9.984;2024-03-02T02:58:52;11.80;99.90
49615;DHT22;35517;45.272;9.984;2024-03-02T03:01:18;11.80;99.90
49615;DHT22;35517;45.272;9.984;2024-03-02T03:03:45;11.70;99.90
49615;DHT22;35517;45.272;9.984;2024-03-02T03:06:12;11.80;99.90
49615;DHT22;35517;45.272;9.984;2024-03-02T03:08:38;11.80;99.90
49615;DHT22;35517;45.272;9.984;2024-03-02T03:11:05;11.70;99.90
49615;DHT22;35517;45.272;9.984;2024-03-02T03:13:32;11.70;99.90
49615;DHT22;35517;45.272;9.984;2024-03-02T03:15:58;11.70;99.90
49615;DHT22;35517;45.272;9.984;2024-03-02T03:18:24;11.70;99.90
49615;DHT22;35517;45.272;9.984;2024-03-02T03:20:51;11.70;99.90
49615;DHT22;35517;45.272;9.984;2024-03-02T03:23:17;11.70;99.90
49615;DHT22;35517;45.272;9.984;2024-03-02T03:25:43;11.70;99.90
49615;DHT22;35517;45.272;9.984;2024-03-02T03:28:10;11.70;99.90
49615;DHT22;35517;45.272;9.984;2024-03-02T03:30:39;11.70;99.90
49615;DHT22;35517;45.272;9.984;2024-03-02T03:33:06;11.80;99.90
49615;DHT22;35517;45.272;9.984;2024-03-02T03:35:32;11.70;99.90
49615;DHT22;35517;45.272;9.984;2024-03-02T03:37:59;11.70;99.90
49615;DHT22;35517;45.272;9.984;2024-03-02T03:40:25;11.60;99.90
49615;DHT22;35517;45.272;9.984;2024-03-02T03:42:52;11.60;99.90
49615;DHT22;35517;45.272;9.984;2024-03-02T03:45:18;11.70;99.90
49615;DHT22;35517;45.272;9.984;2024-03-02T03:47:44;11.70;99.90
49615;DHT22;35517;45.272;9.984;2024-03-02T03:50:10;11.70;99.90
49615;DHT22;35517;45.272;9.984;2024-03-02T03:52:37;11.70;99.90
49615;DHT22;35517;45.272;9.984;2024-03-02T03:55:03;11.70;99.90
49615;DHT22;35517;45.272;9.984;2024-03-02T03:57:31;11.60;99.90
49615;DHT22;35517;45.272;9.984;2024-03-02T03:59:57;11.60;99.90
49615;DHT22;35517;45.272;9.984;2024-03-02T04:02:23;11.70;99.90
49615;DHT22;35517;45.272;9.984;2024-03-02T04:04:50;11.60;99.90
49615;DHT22;35517;45.272;9.984;2024-03-02T04:07:16;11.70;99.90
49615;DHT22;35517;45.272;9.984;2024-03-02T04:09:43;11.60;99.90
49615;DHT22;35517;45.272;9.984;2024-03-02T04:12:09;11.60;99.90
49615;DHT22;35517;45.272;9.984;2024-03-02T04:14:35;11.60;99.90
49615;DHT22;35517;45.272;9.984;2024-03-02T04:17:03;11.60;99.90
49615;DHT22;35517;45.272;9.984;2024-03-02T04:19:29;11.60;99.90
49615;DHT22;35517;45.272;9.984;2024-03-02T04:21:56;11.60;99.90
49615;DHT22;35517;45.272;9.984;2024-03-02T04:24:22;11.60;99.90
49615;DHT22;35517;45.272;9.984;2024-03-02T04:26:48;11.60;99.90
49615;DHT22;35517;45.272;9.984;2024-03-02T04:29:14;11.60;99.90
49615;DHT22;35517;45.272;9.984;2024-03-02T04:31:40;11.60;99.90
49615;DHT22;35517;45.272;9.984;2024-03-02T04:34:07;11.60;99.90
49615;DHT22;35517;45.272;9.984;2024-03-02T04:36:33;11.60;99.90
49615;DHT22;35517;45.272;9.984;2024-03-02T04:38:59;11.60;99.90
49615;DHT22;35517;45.272;9.984;2024-03-02T04:41:25;11.50;99.90
49615;DHT22;35517;45.272;9.984;2024-03-02T04:43:51;11.60;99.90
49615;DHT22;35517;45.272;9.984;2024-03-02T04:46:18;11.60;99.90
49615;DHT22;35517;45.272;9.984;2024-03-02T04:48:44;11.60;99.90
49615;DHT22;35517;45.272;9.984;2024-03-02T04:51:10;11.50;99.90
49615;DHT22;35517;45.272;9.984;2024-03-02T04:53:37;11.50;99.90
49615;DHT22;35517;45.272;9.984;2024-03-02T04:56:04;11.40;99.90
49615;DHT22;35517;45.272;9.984;2024-03-02T04:59:05;11.50;99.90
49615;DHT22;35517;45.272;9.984;2024-03-02T05:01:31;11.50;99.90
49615;DHT22;35517;45.272;9.984;2024-03-02T05:03:57;11.50;99.90
49615;DHT22;35517;45.272;9.984;2024-03-02T05:06:23;11.40;99.90
49615;DHT22;35517;45.272;9.984;2024-03-02T05:08:49;11.40;99.90
49615;DHT22;35517;45.272;9.984;2024-03-02T05:11:16;11.40;99.90
49615;DHT22;35517;45.272;9.984;2024-03-02T05:14:00;11.40;99.90
49615;DHT22;35517;45.272;9.984;2024-03-02T05:16:26;11.30;99.90
49615;DHT22;35517;45.272;9.984;2024-03-02T05:18:52;11.40;99.90
49615;DHT22;35517;45.272;9.984;2024-03-02T05:21:19;11.30;99.90
49615;DHT22;35517;45.272;9.984;2024-03-02T05:23:45;11.40;99.90
49615;DHT22;35517;45.272;9.984;2024-03-02T05:26:11;11.40;99.90
49615;DHT22;35517;45.272;9.984;2024-03-02T05:28:40;11.40;99.90
49615;DHT22;35517;45.272;9.984;2024-03-02T05:31:06;11.30;99.90
49615;DHT22;35517;45.272;9.984;2024-03-02T05:33:32;11.40;99.90
49615;DHT22;35517;45.272;9.984;2024-03-02T05:35:59;11.30;99.90
49615;DHT22;35517;45.272;9.984;2024-03-02T05:38:25;11.20;99.90
49615;DHT22;35517;45.272;9.984;2024-03-02T05:40:51;11.30;99.90
49615;DHT22;35517;45.272;9.984;2024-03-02T05:43:18;11.30;99.90
49615;DHT22;35517;45.272;9.984;2024-03-02T05:45:44;11.20;99.90
49615;DHT22;35517;45.272;9.984;2024-03-02T05:48:10;11.20;99.90
49615;DHT22;35517;45.272;9.984;2024-03-02T05:50:36;11.30;99.90
49615;DHT22;35517;45.272;9.984;2024-03-02T05:53:03;11.20;99.90
49615;DHT22;35517;45.272;9.984;2024-03-02T05:55:29;11.20;99.90
49615;DHT22;35517;45.272;9.984;2024-03-02T05:57:55;11.20;99.90
49615;DHT22;35517;45.272;9.984;2024-03-02T06:00:38;11.10;99.90
49615;DHT22;35517;45.272;9.984;2024-03-02T06:03:04;11.20;99.90
49615;DHT22;35517;45.272;9.984;2024-03-02T06:05:32;11.10;99.90
49615;DHT22;35517;45.272;9.984;2024-03-02T06:07:58;11.10;99.90
49615;DHT22;35517;45.272;9.984;2024-03-02T06:10:24;11.10;99.90
49615;DHT22;35517;45.272;9.984;2024-03-02T06:12:50;11.10;99.90
49615;DHT22;35517;45.272;9.984;2024-03-02T06:15:17;11.10;99.90
49615;DHT22;35517;45.272;9.984;2024-03-02T06:17:43;11.10;99.90
49615;DHT22;35517;45.272;9.984;2024-03-02T06:20:09;11.10;99.90
49615;DHT22;35517;45.272;9.984;2024-03-02T06:22:36;11.10;99.90
49615;DHT22;35517;45.272;9.984;2024-03-02T06:25:03;11.20;99.90
49615;DHT22;35517;45.272;9.984;2024-03-02T06:27:29;11.10;99.90
49615;DHT22;35517;45.272;9.984;2024-03-02T06:29:55;11.20;99.90
49615;DHT22;35517;45.272;9.984;2024-03-02T06:32:21;11.10;99.90
49615;DHT22;35517;45.272;9.984;2024-03-02T06:34:49;11.10;99.90
49615;DHT22;35517;45.272;9.984;2024-03-02T06:37:15;11.10;99.90
49615;DHT22;35517;45.272;9.984;2024-03-02T06:39:42;11.10;99.90
49615;DHT22;35517;45.272;9.984;2024-03-02T06:42:08;11.10;99.90
49615;DHT22;35517;45.272;9.984;2024-03-02T06:44:34;11.10;99.90
49615;DHT22;35517;45.272;9.984;2024-03-02T06:47:00;11.20;99.90
49615;DHT22;35517;45.272;9.984;2024-03-02T06:49:26;11.10;99.90
49615;DHT22;35517;45.272;9.984;2024-03-02T06:51:53;11.10;99.90
49615;DHT22;35517;45.272;9.984;2024-03-02T06:54:19;11.10;99.90
49615;DHT22;35517;45.272;9.984;2024-03-02T06:56:45;11.10;99.90
49615;DHT22;35517;45.272;9.984;2024-03-02T06:59:11;11.10;99.90
49615;DHT22;35517;45.272;9.984;2024-03-02T07:01:37;11.10;99.90
49615;DHT22;35517;45.272;9.984;2024-03-02T07:04:04;11.20;99.90
49615;DHT22;35517;45.272;9.984;2024-03-02T07:06:32;11.10;99.90
49615;DHT22;35517;45.272;9.984;2024-03-02T07:08:58;11.10;99.90
49615;DHT22;35517;45.272;9.984;2024-03-02T07:11:24;11.00;99.90
49615;DHT22;35517;45.272;9.984;2024-03-02T07:13:50;11.10;99.90
49615;DHT22;35517;45.272;9.984;2024-03-02T07:16:16;11.10;99.90
49615;DHT22;35517;45.272;9.984;2024-03-02T07:18:56;11.10;99.90
49615;DHT22;35517;45.272;9.984;2024-03-02T07:21:23;11.20;99.90
49615;DHT22;35517;45.272;9.984;2024-03-02T07:23:49;11.10;99.90
49615;DHT22;35517;45.272;9.984;2024-03-02T07:26:16;11.20;99.90
49615;DHT22;35517;45.272;9.984;2024-03-02T07:28:45;11.20;99.90
49615;DHT22;35517;45.272;9.984;2024-03-02T07:31:12;11.20;99.90
49615;DHT22;35517;45.272;9.984;2024-03-02T07:33:38;11.20;99.90
49615;DHT22;35517;45.272;9.984;2024-03-02T07:36:04;11.20;99.90
49615;DHT22;35517;45.272;9.984;2024-03-02T07:38:31;11.30;99.90
49615;DHT22;35517;45.272;9.984;2024-03-02T07:40:59;11.30;99.90
49615;DHT22;35517;45.272;9.984;2024-03-02T07:43:26;11.30;99.90
49615;DHT22;35517;45.272;9.984;2024-03-02T07:45:53;11.40;99.90
49615;DHT22;35517;45.272;9.984;2024-03-02T07:48:19;11.40;99.90
49615;DHT22;35517;45.272;9.984;2024-03-02T07:50:45;11.30;99.90
49615;DHT22;35517;45.272;9.984;2024-03-02T07:53:12;11.40;99.90
49615;DHT22;35517;45.272;9.984;2024-03-02T07:55:38;11.40;99.90
49615;DHT22;35517;45.272;9.984;2024-03-02T07:58:04;11.30;99.90
49615;DHT22;35517;45.272;9.984;2024-03-02T08:00:31;11.40;99.90
49615;DHT22;35517;45.272;9.984;2024-03-02T08:02:57;11.40;99.90
49615;DHT22;35517;45.272;9.984;2024-03-02T08:05:23;11.40;99.90
49615;DHT22;35517;45.272;9.984;2024-03-02T08:07:50;11.40;99.90
49615;DHT22;35517;45.272;9.984;2024-03-02T08:10:19;11.40;99.90
49615;DHT22;35517;45.272;9.984;2024-03-02T08:12:45;11.40;99.90
49615;DHT22;35517;45.272;9.984;2024-03-02T08:15:11;11.40;99.90
49615;DHT22;35517;45.272;9.984;2024-03-02T08:17:40;11.40;99.90
49615;DHT22;35517;45.272;9.984;2024-03-02T08:20:14;11.50;99.90
49615;DHT22;35517;45.272;9.984;2024-03-02T08:22:40;11.50;99.90
49615;DHT22;35517;45.272;9.984;2024-03-02T08:25:07;11.50;99.90
49615;DHT22;35517;45.272;9.984;2024-03-02T08:27:34;11.50;99.90
49615;DHT22;35517;45.272;9.984;2024-03-02T08:30:00;11.40;99.90
49615;DHT22;35517;45.272;9.984;2024-03-02T08:32:26;11.50;99.90
49615;DHT22;35517;45.272;9.984;2024-03-02T08:34:52;11.50;99.90
49615;DHT22;35517;45.272;9.984;2024-03-02T08:37:19;11.60;99.90
49615;DHT22;35517;45.272;9.984;2024-03-02T08:39:45;11.50;99.90
49615;DHT22;35517;45.272;9.984;2024-03-02T08:42:12;11.50;99.90
49615;DHT22;35517;45.272;9.984;2024-03-02T08:44:38;11.50;99.90
49615;DHT22;35517;45.272;9.984;2024-03-02T08:47:04;11.50;99.90
49615;DHT22;35517;45.272;9.984;2024-03-02T08:49:30;11.60;99.90
49615;DHT22;35517;45.272;9.984;2024-03-02T08:51:57;11.60;99.90
49615;DHT22;35517;45.272;9.984;2024-03-02T08:54:23;11.70;99.90
49615;DHT22;35517;45.272;9.984;2024-03-02T08:56:49;11.80;99.90
49615;DHT22;35517;45.272;9.984;2024-03-02T08:59:16;11.80;99.90
49615;DHT22;35517;45.272;9.984;2024-03-02T09:01:43;11.80;99.90
49615;DHT22;35517;45.272;9.984;2024-03-02T09:04:11;11.90;99.90
49615;DHT22;35517;45.272;9.984;2024-03-02T09:06:38;11.90;99.90
49615;DHT22;35517;45.272;9.984;2024-03-02T09:09:04;11.90;99.90
49615;DHT22;35517;45.272;9.984;2024-03-02T09:11:30;12.00;99.90
49615;DHT22;35517;45.272;9.984;2024-03-02T09:13:58;12.00;99.90
49615;DHT22;35517;45.272;9.984;2024-03-02T09:16:25;12.00;99.90
49615;DHT22;35517;45.272;9.984;2024-03-02T09:18:56;12.00;99.90
49615;DHT22;35517;45.272;9.984;2024-03-02T09:21:23;12.10;99.90
49615;DHT22;35517;45.272;9.984;2024-03-02T09:23:49;12.10;99.90
49615;DHT22;35517;45.272;9.984;2024-03-02T09:26:15;12.30;99.90
49615;DHT22;35517;45.272;9.984;2024-03-02T09:28:45;12.20;99.90
49615;DHT22;35517;45.272;9.984;2024-03-02T09:31:11;12.20;99.90
49615;DHT22;35517;45.272;9.984;2024-03-02T09:33:38;12.20;99.90
49615;DHT22;35517;45.272;9.984;2024-03-02T09:36:05;12.20;99.90
49615;DHT22;35517;45.272;9.984;2024-03-02T09:38:34;12.30;99.90
49615;DHT22;35517;45.272;9.984;2024-03-02T09:41:01;12.20;99.90
49615;DHT22;35517;45.272;9.984;2024-03-02T09:43:27;12.10;99.90
49615;DHT22;35517;45.272;9.984;2024-03-02T09:45:54;12.20;99.90
49615;DHT22;35517;45.272;9.984;2024-03-02T09:48:21;12.10;99.90
49615;DHT22;35517;45.272;9.984;2024-03-02T09:50:47;12.10;99.90
49615;DHT22;35517;45.272;9.984;2024-03-02T09:53:14;12.20;99.90
49615;DHT22;35517;45.272;9.984;2024-03-02T09:55:41;12.10;99.90
49615;DHT22;35517;45.272;9.984;2024-03-02T09:58:12;12.00;99.90
49615;DHT22;35517;45.272;9.984;2024-03-02T10:00:38;12.00;99.90
49615;DHT22;35517;45.272;9.984;2024-03-02T10:03:05;12.00;99.90
49615;DHT22;35517;45.272;9.984;2024-03-02T10:05:31;11.90;99.90
49615;DHT22;35517;45.272;9.984;2024-03-02T10:08:01;12.00;99.90
49615;DHT22;35517;45.272;9.984;2024-03-02T10:10:38;12.00;99.90
49615;DHT22;35517;45.272;9.984;2024-03-02T10:13:13;12.20;99.90
49615;DHT22;35517;45.272;9.984;2024-03-02T10:15:40;12.20;99.90
49615;DHT22;35517;45.272;9.984;2024-03-02T10:18:11;12.10;99.90
49615;DHT22;35517;45.272;9.984;2024-03-02T10:20:42;12.10;99.90
49615;DHT22;35517;45.272;9.984;2024-03-02T10:25:37;12.10;99.90
49615;DHT22;35517;45.272;9.984;2024-03-02T10:28:03;12.10;99.90
49615;DHT22;35517;45.272;9.984;2024-03-02T10:30:33;12.30;99.90
49615;DHT22;35517;45.272;9.984;2024-03-02T10:33:01;12.30;99.90
49615;DHT22;35517;45.272;9.984;2024-03-02T10:35:28;12.30;99.90
49615;DHT22;35517;45.272;9.984;2024-03-02T10:37:55;12.30;99.90
49615;DHT22;35517;45.272;9.984;2024-03-02T10:40:22;12.30;99.90
49615;DHT22;35517;45.272;9.984;2024-03-02T10:42:50;12.30;99.90
49615;DHT22;35517;45.272;9.984;2024-03-02T10:45:17;12.40;99.90
49615;DHT22;35517;45.272;9.984;2024-03-02T10:47:46;12.30;99.90
49615;DHT22;35517;45.272;9.984;2024-03-02T10:50:13;12.30;99.90
49615;DHT22;35517;45.272;9.984;2024-03-02T10:52:40;12.40;99.90
49615;DHT22;35517;45.272;9.984;2024-03-02T10:55:07;12.30;99.90
49615;DHT22;35517;45.272;9.984;2024-03-02T10:57:51;12.20;99.90
49615;DHT22;35517;45.272;9.984;2024-03-02T11:00:19;12.30;99.90
49615;DHT22;35517;45.272;9.984;2024-03-02T11:02:52;12.20;99.90
49615;DHT22;35517;45.272;9.984;2024-03-02T11:05:45;12.30;99.90
49615;DHT22;35517;45.272;9.984;2024-03-02T11:08:13;12.40;99.90
49615;DHT22;35517;45.272;9.984;2024-03-02T11:11:06;12.30;99.90
49615;DHT22;35517;45.272;9.984;2024-03-02T11:13:34;12.30;99.90
49615;DHT22;35517;45.272;9.984;2024-03-02T11:16:12;12.30;99.90
49615;DHT22;35517;45.272;9.984;2024-03-02T11:18:39;12.30;99.90
49615;DHT22;35517;45.272;9.984;2024-03-02T11:21:06;12.30;99.90
49615;DHT22;35517;45.272;9.984;2024-03-02T11:23:33;12.20;99.90
49615;DHT22;35517;45.272;9.984;2024-03-02T11:26:22;12.30;99.90
49615;DHT22;35517;45.272;9.984;2024-03-02T11:28:51;12.20;99.90
49615;DHT22;35517;45.272;9.984;2024-03-02T11:31:17;12.20;99.90
49615;DHT22;35517;45.272;9.984;2024-03-02T11:33:43;12.30;99.90
49615;DHT22;35517;45.272;9.984;2024-03-02T11:36:10;12.20;99.90
49615;DHT22;35517;45.272;9.984;2024-03-02T11:38:36;12.30;99.90
49615;DHT22;35517;45.272;9.984;2024-03-02T11:41:08;12.20;99.90
49615;DHT22;35517;45.272;9.984;2024-03-02T11:43:38;12.30;99.90
49615;DHT22;35517;45.272;9.984;2024-03-02T11:46:05;12.30;99.90
49615;DHT22;35517;45.272;9.984;2024-03-02T11:48:36;12.20;99.90
49615;DHT22;35517;45.272;9.984;2024-03-02T11:51:03;12.20;99.90
49615;DHT22;35517;45.272;9.984;2024-03-02T11:53:31;12.20;99.90
49615;DHT22;35517;45.272;9.984;2024-03-02T11:56:01;12.30;99.90
49615;DHT22;35517;45.272;9.984;2024-03-02T11:58:28;12.20;99.90
49615;DHT22;35517;45.272;9.984;2024-03-02T12:00:55;12.20;99.90
49615;DHT22;35517;45.272;9.984;2024-03-02T12:03:23;12.10;99.90
49615;DHT22;35517;45.272;9.984;2024-03-02T12:05:52;12.10;99.90
49615;DHT22;35517;45.272;9.984;2024-03-02T12:08:19;12.20;99.90
49615;DHT22;35517;45.272;9.984;2024-03-02T12:11:02;12.20;99.90
49615;DHT22;35517;45.272;9.984;2024-03-02T12:13:28;12.20;99.90
49615;DHT22;35517;45.272;9.984;2024-03-02T12:15:55;12.30;99.90
49615;DHT22;35517;45.272;9.984;2024-03-02T12:18:24;12.40;99.90
49615;DHT22;35517;45.272;9.984;2024-03-02T12:20:51;12.40;99.90
49615;DHT22;35517;45.272;9.984;2024-03-02T12:23:18;12.40;99.90
49615;DHT22;35517;45.272;9.984;2024-03-02T12:25:45;12.50;99.90
49615;DHT22;35517;45.272;9.984;2024-03-02T12:28:12;12.50;99.90
49615;DHT22;35517;45.272;9.984;2024-03-02T12:30:38;12.50;99.90
49615;DHT22;35517;45.272;9.984;2024-03-02T12:33:05;12.60;99.90
49615;DHT22;35517;45.272;9.984;2024-03-02T12:35:31;12.70;99.90
49615;DHT22;35517;45.272;9.984;2024-03-02T12:37:57;12.70;99.90
49615;DHT22;35517;45.272;9.984;2024-03-02T12:40:24;12.80;99.90
49615;DHT22;35517;45.272;9.984;2024-03-02T12:42:51;12.90;99.90
49615;DHT22;35517;45.272;9.984;2024-03-02T12:45:17;12.80;99.90
49615;DHT22;35517;45.272;9.984;2024-03-02T12:47:50;12.80;99.90
49615;DHT22;35517;45.272;9.984;2024-03-02T12:50:17;12.80;99.90
49615;DHT22;35517;45.272;9.984;2024-03-02T12:52:44;12.90;99.90
49615;DHT22;35517;45.272;9.984;2024-03-02T12:55:16;13.00;99.90
49615;DHT22;35517;45.272;9.984;2024-03-02T12:57:44;13.00;99.90
49615;DHT22;35517;45.272;9.984;2024-03-02T13:00:10;13.00;99.90
49615;DHT22;35517;45.272;9.984;2024-03-02T13:02:42;13.00;99.90
49615;DHT22;35517;45.272;9.984;2024-03-02T13:05:08;13.00;99.90
49615;DHT22;35517;45.272;9.984;2024-03-02T13:07:38;13.00;99.90
49615;DHT22;35517;45.272;9.984;2024-03-02T13:10:05;13.00;99.90
49615;DHT22;35517;45.272;9.984;2024-03-02T13:12:34;13.00;99.90
49615;DHT22;35517;45.272;9.984;2024-03-02T13:15:04;12.90;99.90
49615;DHT22;35517;45.272;9.984;2024-03-02T13:17:31;13.00;99.90
49615;DHT22;35517;45.272;9.984;2024-03-02T13:20:00;12.90;99.90
49615;DHT22;35517;45.272;9.984;2024-03-02T13:22:26;12.90;99.90
49615;DHT22;35517;45.272;9.984;2024-03-02T13:24:53;12.90;99.90
49615;DHT22;35517;45.272;9.984;2024-03-02T13:27:23;12.80;99.90
49615;DHT22;35517;45.272;9.984;2024-03-02T13:29:50;12.80;99.90
49615;DHT22;35517;45.272;9.984;2024-03-02T13:32:16;12.80;99.90
49615;DHT22;35517;45.272;9.984;2024-03-02T13:34:43;13.00;99.90
49615;DHT22;35517;45.272;9.984;2024-03-02T13:37:09;12.80;99.90
49615;DHT22;35517;45.272;9.984;2024-03-02T13:39:36;12.80;99.90
49615;DHT22;35517;45.272;9.984;2024-03-02T13:42:10;12.90;99.90
49615;DHT22;35517;45.272;9.984;2024-03-02T13:44:37;12.90;99.90
49615;DHT22;35517;45.272;9.984;2024-03-02T13:47:04;12.80;99.90
49615;DHT22;35517;45.272;9.984;2024-03-02T13:49:31;12.80;99.90
49615;DHT22;35517;45.272;9.984;2024-03-02T13:52:08;12.80;99.90
49615;DHT22;35517;45.272;9.984;2024-03-02T13:54:39;12.70;99.90
49615;DHT22;35517;45.272;9.984;2024-03-02T13:57:07;12.80;99.90
49615;DHT22;35517;45.272;9.984;2024-03-02T13:59:34;12.80;99.90
49615;DHT22;35517;45.272;9.984;2024-03-02T14:02:05;12.80;99.90
49615;DHT22;35517;45.272;9.984;2024-03-02T14:04:35;12.80;99.90
49615;DHT22;35517;45.272;9.984;2024-03-02T14:07:01;12.80;99.90
49615;DHT22;35517;45.272;9.984;2024-03-02T14:09:28;12.70;99.90
49615;DHT22;35517;45.272;9.984;2024-03-02T14:11:55;12.70;99.90
49615;DHT22;35517;45.272;9.984;2024-03-02T14:14:21;12.70;99.90
49615;DHT22;35517;45.272;9.984;2024-03-02T14:16:47;12.70;99.90
49615;DHT22;35517;45.272;9.984;2024-03-02T14:19:14;12.70;99.90
49615;DHT22;35517;45.272;9.984;2024-03-02T14:21:40;12.60;99.90
49615;DHT22;35517;45.272;9.984;2024-03-02T14:24:07;12.60;99.90
49615;DHT22;35517;45.272;9.984;2024-03-02T14:26:33;12.60;99.90
49615;DHT22;35517;45.272;9.984;2024-03-02T14:29:00;12.60;99.90
49615;DHT22;35517;45.272;9.984;2024-03-02T14:31:30;12.70;99.90
49615;DHT22;35517;45.272;9.984;2024-03-02T14:33:59;12.70;99.90
49615;DHT22;35517;45.272;9.984;2024-03-02T14:36:27;12.70;99.90
49615;DHT22;35517;45.272;9.984;2024-03-02T14:38:54;12.60;99.90
49615;DHT22;35517;45.272;9.984;2024-03-02T14:41:20;12.60;99.90
49615;DHT22;35517;45.272;9.984;2024-03-02T14:43:47;12.70;99.90
49615;DHT22;35517;45.272;9.984;2024-03-02T14:46:13;12.70;99.90
49615;DHT22;35517;45.272;9.984;2024-03-02T14:48:40;12.70;99.90
49615;DHT22;35517;45.272;9.984;2024-03-02T14:51:06;12.70;99.90
49615;DHT22;35517;45.272;9.984;2024-03-02T14:53:32;12.80;99.90
49615;DHT22;35517;45.272;9.984;2024-03-02T14:55:59;12.70;99.90
49615;DHT22;35517;45.272;9.984;2024-03-02T14:58:25;12.80;99.90
49615;DHT22;35517;45.272;9.984;2024-03-02T15:00:52;12.90;99.90
49615;DHT22;35517;45.272;9.984;2024-03-02T15:03:18;12.80;99.90
49615;DHT22;35517;45.272;9.984;2024-03-02T15:05:44;12.80;99.90
49615;DHT22;35517;45.272;9.984;2024-03-02T15:08:11;12.90;99.90
49615;DHT22;35517;45.272;9.984;2024-03-02T15:10:37;12.90;99.90
49615;DHT22;35517;45.272;9.984;2024-03-02T15:13:04;13.00;99.90
49615;DHT22;35517;45.272;9.984;2024-03-02T15:15:30;12.90;99.90
49615;DHT22;35517;45.272;9.984;2024-03-02T15:17:56;12.80;99.90
49615;DHT22;35517;45.272;9.984;2024-03-02T15:20:22;12.80;99.90
49615;DHT22;35517;45.272;9.984;2024-03-02T15:22:48;12.70;99.90
49615;DHT22;35517;45.272;9.984;2024-03-02T15:25:15;12.70;99.90
49615;DHT22;35517;45.272;9.984;2024-03-02T15:27:42;12.70;99.90
49615;DHT22;35517;45.272;9.984;2024-03-02T15:30:09;12.70;99.90
49615;DHT22;35517;45.272;9.984;2024-03-02T15:32:35;12.70;99.90
49615;DHT22;35517;45.272;9.984;2024-03-02T15:35:03;12.70;99.90